Time;durP1;ratioP1;P1;durP2;ratioP2;P2;SDS_P1;SDS_P2;PMS_P1;PMS_P2;Temp;Humidity;BMP_temperature;BMP_pressure;BME280_temperature;BME280_humidity;BME280_pressure;Samples;Min_cycle;Max_cycle;Signal;HPM_P1;HPM_P2
2021/09/16 00:00:11;;;;;;;0.87;0.87;;;20.90;1.00;;;;;;5018140;28;20451;-80
2021/09/16 00:02:40;;;;;;;0.93;0.70;;;21.00;1.00;;;;;;5014488;28;20446;-81
2021/09/16 00:05:10;;;;;;;1.00;0.93;;;21.00;1.00;;;;;;5023102;28;21025;-80
2021/09/16 00:07:38;;;;;;;1.00;0.90;;;21.10;1.00;;;;;;5022205;28;20799;-80
2021/09/16 00:10:09;;;;;;;0.90;0.90;;;21.10;99.90;;;;;;5015036;28;20460;-80
2021/09/16 00:12:37;;;;;;;0.80;0.80;;;20.90;1.00;;;;;;5010806;28;20487;-80
2021/09/16 00:15:08;;;;;;;1.33;0.80;;;20.80;1.00;;;;;;5008047;28;20568;-80
2021/09/16 00:17:36;;;;;;;1.37;0.93;;;20.70;1.00;;;;;;5016422;28;20462;-79
2021/09/16 00:20:06;;;;;;;0.83;0.83;;;20.50;99.90;;;;;;5007052;28;20470;-80
2021/09/16 00:22:35;;;;;;;1.00;0.73;;;20.40;1.00;;;;;;5018254;28;20442;-79
2021/09/16 00:25:04;;;;;;;2.60;0.90;;;20.40;99.90;;;;;;5014036;28;20478;-79
2021/09/16 00:27:34;;;;;;;1.07;0.83;;;20.50;1.00;;;;;;5017438;28;20833;-82
2021/09/16 00:30:03;;;;;;;0.90;0.63;;;20.30;99.90;;;;;;5014657;28;20449;-79
2021/09/16 00:32:32;;;;;;;1.00;0.90;;;20.80;99.90;;;;;;5009706;28;20496;-80
2021/09/16 00:35:00;;;;;;;0.80;0.80;;;20.80;1.00;;;;;;5010834;28;21021;-78
2021/09/16 00:37:28;;;;;;;0.90;0.90;;;20.80;1.00;;;;;;5021322;28;20878;-79
2021/09/16 00:39:56;;;;;;;1.07;0.97;;;20.80;35.60;;;;;;5009285;28;20443;-79
2021/09/16 00:42:25;;;;;;;1.63;0.80;;;20.70;77.90;;;;;;5009079;28;20445;-80
2021/09/16 00:44:54;;;;;;;0.70;0.70;;;20.70;1.00;;;;;;5023994;28;20484;-80
2021/09/16 00:47:22;;;;;;;1.60;0.80;;;20.70;99.90;;;;;;5001034;28;20464;-80
2021/09/16 00:49:51;;;;;;;0.77;0.70;;;20.80;75.20;;;;;;5004473;28;20457;-81
2021/09/16 00:52:22;;;;;;;1.07;1.03;;;20.90;1.00;;;;;;5008947;28;20485;-81
2021/09/16 00:54:53;;;;;;;0.60;0.60;;;20.90;1.00;;;;;;5006910;28;20515;-79
2021/09/16 00:57:24;;;;;;;1.80;0.70;;;21.00;1.00;;;;;;5021375;28;20456;-81
2021/09/16 00:59:54;;;;;;;0.90;0.80;;;21.10;1.00;;;;;;5029597;28;20429;-80
2021/09/16 01:02:22;;;;;;;0.90;0.80;;;21.00;1.00;;;;;;5009107;28;20433;-80
2021/09/16 01:04:51;;;;;;;0.77;0.73;;;21.00;1.00;;;;;;5015245;28;20473;-81
2021/09/16 01:07:19;;;;;;;1.23;1.03;;;21.10;1.00;;;;;;5015562;28;21138;-80
2021/09/16 01:09:47;;;;;;;0.80;0.80;;;21.10;1.00;;;;;;5015387;28;20877;-81
2021/09/16 01:12:15;;;;;;;1.80;0.70;;;21.00;1.00;;;;;;5007972;28;20460;-80
2021/09/16 01:14:45;;;;;;;0.60;0.60;;;20.90;1.00;;;;;;5009710;28;20988;-81
2021/09/16 01:17:14;;;;;;;0.80;0.80;;;20.90;1.00;;;;;;5006754;28;20578;-81
2021/09/16 01:19:43;;;;;;;0.97;0.87;;;20.90;19.00;;;;;;5009299;28;20468;-81
2021/09/16 01:22:21;;;;;;;0.60;0.60;;;20.80;99.90;;;;;;5007335;28;20446;-81
2021/09/16 01:24:51;;;;;;;1.00;0.90;;;20.80;17.00;;;;;;5013434;28;20472;-81
2021/09/16 01:27:19;;;;;;;1.40;0.80;;;20.80;99.90;;;;;;5011715;28;20972;-80
2021/09/16 01:29:48;;;;;;;0.67;0.67;;;20.80;99.90;;;;;;5009801;28;20449;-81
2021/09/16 01:32:16;;;;;;;1.07;0.80;;;20.70;99.90;;;;;;5003989;28;20525;-81
2021/09/16 01:34:44;;;;;;;0.70;0.70;;;20.60;99.90;;;;;;5008336;28;20489;-81
2021/09/16 01:37:12;;;;;;;0.83;0.60;;;20.60;99.90;;;;;;5009117;28;20461;-80
2021/09/16 01:39:40;;;;;;;0.90;0.77;;;20.60;1.00;;;;;;5012893;28;20958;-80
2021/09/16 01:42:10;;;;;;;0.70;0.70;;;20.50;1.00;;;;;;5007781;28;20472;-80
2021/09/16 01:44:38;;;;;;;0.70;0.70;;;20.60;99.90;;;;;;4997336;28;20482;-81
2021/09/16 01:47:07;;;;;;;1.00;1.00;;;20.70;99.90;;;;;;5007236;28;20464;-81
2021/09/16 01:49:35;;;;;;;0.80;0.80;;;20.60;99.90;;;;;;4992193;28;20508;-80
2021/09/16 01:52:04;;;;;;;0.83;0.80;;;20.60;99.90;;;;;;5014984;28;20496;-78
2021/09/16 01:54:32;;;;;;;0.77;0.77;;;20.60;99.90;;;;;;5009029;28;20896;-78
2021/09/16 01:57:00;;;;;;;0.70;0.70;;;20.50;99.90;;;;;;5019567;28;20865;-79
2021/09/16 01:59:29;;;;;;;0.90;0.63;;;20.60;99.90;;;;;;5012881;28;20457;-80
2021/09/16 02:01:58;;;;;;;2.40;0.97;;;20.70;99.90;;;;;;5001325;28;20453;-80
2021/09/16 02:04:26;;;;;;;0.70;0.70;;;20.60;99.90;;;;;;5006990;28;20484;-80
2021/09/16 02:06:54;;;;;;;0.80;0.80;;;20.60;1.00;;;;;;5006817;28;20557;-79
2021/09/16 02:09:22;;;;;;;0.80;0.80;;;20.60;1.00;;;;;;5022813;28;20447;-79
2021/09/16 02:11:52;;;;;;;0.90;0.80;;;20.70;99.90;;;;;;5010186;28;20465;-79
2021/09/16 02:14:20;;;;;;;2.00;0.90;;;20.80;99.90;;;;;;5010314;28;20491;-79
2021/09/16 02:16:49;;;;;;;0.70;0.70;;;20.80;99.90;;;;;;5011714;28;20953;-79
2021/09/16 02:19:18;;;;;;;1.20;1.10;;;20.80;99.90;;;;;;5003419;28;20466;-80
2021/09/16 02:21:46;;;;;;;0.93;0.83;;;20.80;99.90;;;;;;5007446;28;20456;-81
2021/09/16 02:24:14;;;;;;;1.30;0.90;;;20.80;99.90;;;;;;5019953;28;20480;-80
2021/09/16 02:26:42;;;;;;;0.77;0.77;;;20.80;99.90;;;;;;5022249;28;20458;-80
2021/09/16 02:29:10;;;;;;;1.10;1.00;;;20.80;99.90;;;;;;5007134;28;20456;-80
2021/09/16 02:31:39;;;;;;;0.70;0.70;;;20.80;99.90;;;;;;4995356;28;20457;-80
2021/09/16 02:34:08;;;;;;;1.30;0.90;;;20.90;80.30;;;;;;5007594;28;20485;-80
2021/09/16 02:36:37;;;;;;;0.70;0.70;;;20.80;56.80;;;;;;5010180;28;20449;-80
2021/09/16 02:39:05;;;;;;;9.87;1.10;;;20.80;99.90;;;;;;5007625;28;20470;-80
2021/09/16 02:41:33;;;;;;;0.90;0.90;;;20.90;99.90;;;;;;5007066;28;20512;-80
2021/09/16 02:44:01;;;;;;;4.73;1.23;;;21.00;99.90;;;;;;5006260;28;20476;-80
2021/09/16 02:46:30;;;;;;;0.70;0.70;;;20.90;99.90;;;;;;5004917;28;20454;-80
2021/09/16 02:48:58;;;;;;;1.03;0.60;;;20.80;99.90;;;;;;5004603;28;20456;-78
2021/09/16 02:51:28;;;;;;;0.90;0.70;;;20.90;99.90;;;;;;5008757;28;20445;-80
2021/09/16 02:53:56;;;;;;;1.00;0.90;;;20.80;20.60;;;;;;5008462;28;20481;-79
2021/09/16 02:56:24;;;;;;;0.90;0.80;;;20.60;99.90;;;;;;5009391;28;20453;-79
2021/09/16 02:58:52;;;;;;;0.80;0.80;;;20.60;99.90;;;;;;5010273;28;20487;-78
2021/09/16 03:01:20;;;;;;;1.57;0.77;;;20.50;99.90;;;;;;5007681;28;20456;-81
2021/09/16 03:03:48;;;;;;;3.10;0.80;;;20.60;99.90;;;;;;5011914;28;20508;-80
2021/09/16 03:06:17;;;;;;;0.87;0.87;;;20.70;99.90;;;;;;5013003;28;20511;-80
2021/09/16 03:08:48;;;;;;;0.80;0.80;;;20.90;67.70;;;;;;5027056;28;20460;-81
2021/09/16 03:11:17;;;;;;;1.23;0.80;;;21.00;1.00;;;;;;5012118;28;20499;-80
2021/09/16 03:13:45;;;;;;;1.00;0.80;;;21.00;1.00;;;;;;5025405;28;20484;-80
2021/09/16 03:16:13;;;;;;;2.30;0.80;;;21.10;1.00;;;;;;5005054;28;20486;-81
2021/09/16 03:18:41;;;;;;;1.10;1.00;;;21.10;39.40;;;;;;5009355;28;20953;-81
2021/09/16 03:21:10;;;;;;;0.90;0.87;;;21.10;1.00;;;;;;5009332;28;20517;-80
2021/09/16 03:23:38;;;;;;;3.00;0.90;;;21.10;1.00;;;;;;5005205;28;20479;-78
2021/09/16 03:26:07;;;;;;;1.90;1.53;;;21.10;1.00;;;;;;5008246;28;20453;-79
2021/09/16 03:28:38;;;;;;;2.60;0.80;;;21.00;99.90;;;;;;5011973;28;20948;-81
2021/09/16 03:31:07;;;;;;;1.20;1.10;;;20.90;99.90;;;;;;5009730;28;20449;-80
2021/09/16 03:33:35;;;;;;;0.90;0.80;;;20.80;99.90;;;;;;5009714;28;20483;-79
2021/09/16 03:36:04;;;;;;;1.17;1.07;;;20.80;99.90;;;;;;5026754;28;20833;-79
2021/09/16 03:38:32;;;;;;;0.80;0.80;;;20.80;99.90;;;;;;5010359;28;20443;-80
2021/09/16 03:41:01;;;;;;;0.80;0.80;;;20.70;99.90;;;;;;5009036;28;20457;-79
2021/09/16 03:43:31;;;;;;;1.47;1.37;;;20.80;1.00;;;;;;5008423;28;20575;-80
2021/09/16 03:45:59;;;;;;;3.03;0.90;;;20.80;99.90;;;;;;5009772;28;20461;-79
2021/09/16 03:48:27;;;;;;;1.00;0.90;;;20.70;1.00;;;;;;5010270;28;20459;-81
2021/09/16 03:50:55;;;;;;;1.10;1.00;;;20.70;1.00;;;;;;5025281;28;20461;-80
2021/09/16 03:53:23;;;;;;;1.00;0.90;;;20.80;1.00;;;;;;5008909;28;20485;-79
2021/09/16 03:55:52;;;;;;;0.80;0.80;;;20.80;1.00;;;;;;5010312;28;21079;-79
2021/09/16 03:58:20;;;;;;;1.30;0.90;;;20.80;1.00;;;;;;5012085;28;20822;-79
2021/09/16 04:00:49;;;;;;;0.90;0.77;;;20.90;1.00;;;;;;5009128;28;20450;-79
2021/09/16 04:03:18;;;;;;;1.77;1.00;;;20.80;99.90;;;;;;5009937;28;21027;-79
2021/09/16 04:05:46;;;;;;;1.43;1.00;;;20.90;1.00;;;;;;5010343;28;20429;-78
2021/09/16 04:08:14;;;;;;;2.37;1.00;;;20.90;1.00;;;;;;5011197;28;20552;-78
2021/09/16 04:10:43;;;;;;;1.80;1.20;;;21.00;99.90;;;;;;5009887;28;20445;-79
2021/09/16 04:13:11;;;;;;;0.93;0.80;;;21.00;99.90;;;;;;5006772;28;20469;-79
2021/09/16 04:15:40;;;;;;;1.80;1.00;;;21.00;99.90;;;;;;5010105;28;20491;-79
2021/09/16 04:18:09;;;;;;;1.40;0.90;;;20.90;99.90;;;;;;5009637;28;20458;-78
2021/09/16 04:20:37;;;;;;;1.00;0.90;;;20.70;1.00;;;;;;5009156;28;20959;-80
2021/09/16 04:23:06;;;;;;;1.20;1.00;;;20.60;1.00;;;;;;5008630;28;20884;-78
2021/09/16 04:25:34;;;;;;;1.37;1.00;;;20.70;99.90;;;;;;5009425;28;20467;-79
2021/09/16 04:28:02;;;;;;;2.37;1.13;;;20.70;99.90;;;;;;5007761;28;20456;-79
2021/09/16 04:30:30;;;;;;;1.00;0.90;;;20.70;24.70;;;;;;5002243;28;20454;-78
2021/09/16 04:32:58;;;;;;;1.43;1.30;;;20.60;99.90;;;;;;5004648;28;20957;-79
2021/09/16 04:35:28;;;;;;;1.20;1.10;;;20.60;94.20;;;;;;5008252;28;20481;-76
2021/09/16 04:37:56;;;;;;;1.43;1.33;;;20.60;99.90;;;;;;5000352;28;20458;-74
2021/09/16 04:40:24;;;;;;;1.50;1.40;;;20.60;99.90;;;;;;5009593;28;20458;-75
2021/09/16 04:42:52;;;;;;;0.90;0.90;;;20.50;16.70;;;;;;5006732;28;20457;-74
2021/09/16 04:45:21;;;;;;;1.73;1.10;;;20.50;99.90;;;;;;5006503;28;20473;-76
2021/09/16 04:47:49;;;;;;;1.10;1.00;;;20.50;1.00;;;;;;5002492;28;20458;-76
2021/09/16 04:50:17;;;;;;;1.43;1.03;;;20.50;99.90;;;;;;5007305;28;20463;-75
2021/09/16 04:52:46;;;;;;;1.90;1.40;;;20.50;1.00;;;;;;5006387;28;20461;-78
2021/09/16 04:55:15;;;;;;;1.57;1.20;;;20.50;99.90;;;;;;5009470;28;20531;-73
2021/09/16 04:57:44;;;;;;;1.43;1.03;;;20.70;71.00;;;;;;5020925;28;20452;-77
2021/09/16 05:00:13;;;;;;;2.17;1.20;;;20.70;99.90;;;;;;5008021;28;20507;-77
2021/09/16 05:02:41;;;;;;;1.17;1.07;;;20.80;1.00;;;;;;5009761;28;20465;-78
2021/09/16 05:05:10;;;;;;;1.90;1.10;;;20.70;1.00;;;;;;5010289;28;20519;-77
2021/09/16 05:07:38;;;;;;;5.10;1.30;;;20.60;99.90;;;;;;5008815;28;20931;-77
2021/09/16 05:10:09;;;;;;;2.67;1.40;;;20.60;99.90;;;;;;5009154;28;20449;-78
2021/09/16 05:12:38;;;;;;;2.20;1.50;;;20.60;99.90;;;;;;5009345;28;20441;-72
2021/09/16 05:15:09;;;;;;;1.63;1.10;;;20.50;1.00;;;;;;5008611;28;20470;-78
2021/09/16 05:17:37;;;;;;;1.83;1.50;;;20.50;99.90;;;;;;5008847;28;20798;-78
2021/09/16 05:20:07;;;;;;;1.90;1.10;;;20.40;99.90;;;;;;5007923;28;20488;-78
2021/09/16 05:22:35;;;;;;;2.07;1.10;;;20.40;8.50;;;;;;5004104;28;20476;-77
2021/09/16 05:25:03;;;;;;;1.87;1.77;;;20.40;99.90;;;;;;5006496;28;21122;-78
2021/09/16 05:27:33;;;;;;;1.40;1.17;;;20.50;48.30;;;;;;5009886;28;20529;-78
2021/09/16 05:30:02;;;;;;;1.20;1.10;;;20.50;1.00;;;;;;5008474;28;20457;-75
2021/09/16 05:32:30;;;;;;;1.23;1.10;;;20.50;1.00;;;;;;5008859;28;20449;-77
2021/09/16 05:34:58;;;;;;;3.90;1.83;;;20.50;21.20;;;;;;5010118;28;20893;-77
2021/09/16 05:37:26;;;;;;;1.57;1.07;;;20.50;99.90;;;;;;5010099;28;20476;-77
2021/09/16 05:39:56;;;;;;;1.53;1.10;;;20.50;1.00;;;;;;5009670;28;21108;-79
2021/09/16 05:42:25;;;;;;;3.10;1.10;;;20.40;50.80;;;;;;5008662;28;20461;-79
2021/09/16 05:44:55;;;;;;;2.83;1.20;;;20.40;1.00;;;;;;5009715;28;20511;-77
2021/09/16 05:47:23;;;;;;;1.90;1.07;;;20.30;99.90;;;;;;5009876;28;20465;-77
2021/09/16 05:49:52;;;;;;;5.00;1.30;;;20.40;99.90;;;;;;5005938;28;21040;-76
2021/09/16 05:52:20;;;;;;;3.43;1.13;;;20.40;99.90;;;;;;5008194;28;20473;-77
2021/09/16 05:54:48;;;;;;;1.30;1.20;;;20.40;99.90;;;;;;5005221;28;20501;-77
2021/09/16 05:57:16;;;;;;;2.83;2.17;;;20.50;99.90;;;;;;5009107;28;20484;-76
2021/09/16 05:59:44;;;;;;;2.87;1.73;;;20.50;99.90;;;;;;5003148;28;20519;-77
2021/09/16 06:02:14;;;;;;;1.17;1.07;;;20.60;99.90;;;;;;5000835;28;20457;-78
2021/09/16 06:04:42;;;;;;;1.00;1.00;;;20.70;1.00;;;;;;5009443;28;20465;-76
2021/09/16 06:07:10;;;;;;;1.60;1.20;;;20.70;49.10;;;;;;5016541;28;20453;-77
2021/09/16 06:09:38;;;;;;;1.00;0.90;;;20.70;99.90;;;;;;5018758;28;20464;-78
2021/09/16 06:12:08;;;;;;;1.40;1.00;;;20.80;48.10;;;;;;5008539;28;20860;-77
2021/09/16 06:14:36;;;;;;;1.10;0.97;;;20.80;99.90;;;;;;5010502;28;20465;-78
2021/09/16 06:17:05;;;;;;;1.07;0.80;;;20.70;99.90;;;;;;5004371;28;20840;-76
2021/09/16 06:19:34;;;;;;;1.10;1.00;;;20.60;99.90;;;;;;5005374;28;20452;-79
2021/09/16 06:22:03;;;;;;;3.33;1.03;;;20.70;1.00;;;;;;5005796;28;20975;-77
2021/09/16 06:24:31;;;;;;;1.90;1.27;;;20.60;1.00;;;;;;5005909;28;20993;-77
2021/09/16 06:26:59;;;;;;;1.50;1.27;;;20.60;1.00;;;;;;5007234;28;20963;-77
2021/09/16 06:29:28;;;;;;;3.53;1.10;;;20.50;99.90;;;;;;5008554;28;20487;-76
2021/09/16 06:31:56;;;;;;;2.57;0.87;;;20.50;99.90;;;;;;5003192;28;20461;-77
2021/09/16 06:34:25;;;;;;;2.73;1.00;;;20.40;99.90;;;;;;5007720;28;20484;-77
2021/09/16 06:36:55;;;;;;;1.97;1.00;;;20.30;1.00;;;;;;5008548;28;21933;-78
2021/09/16 06:39:23;;;;;;;1.47;1.10;;;20.30;1.00;;;;;;5007443;28;20439;-78
2021/09/16 06:41:51;;;;;;;4.93;1.40;;;20.30;1.00;;;;;;5013230;28;20449;-77
2021/09/16 06:44:20;;;;;;;1.40;1.10;;;20.40;1.00;;;;;;5011484;28;20473;-80
2021/09/16 06:46:48;;;;;;;1.20;0.90;;;20.50;1.00;;;;;;5009994;28;20560;-79
2021/09/16 06:49:16;;;;;;;1.30;1.10;;;20.60;99.90;;;;;;5026654;28;20508;-77
2021/09/16 06:51:45;;;;;;;1.30;1.07;;;20.60;99.90;;;;;;5011137;28;20472;-77
2021/09/16 06:54:14;;;;;;;1.43;0.87;;;20.80;1.00;;;;;;5006042;28;20508;-78
2021/09/16 06:56:43;;;;;;;2.50;1.00;;;20.90;1.00;;;;;;5009642;28;20535;-78
2021/09/16 06:59:11;;;;;;;2.33;1.13;;;21.00;99.90;;;;;;5009027;28;20458;-77
2021/09/16 07:01:39;;;;;;;0.90;0.87;;;21.00;1.00;;;;;;5014995;28;20452;-77
2021/09/16 07:04:08;;;;;;;1.20;1.10;;;21.00;99.90;;;;;;5024689;28;21158;-77
2021/09/16 07:06:37;;;;;;;1.57;0.90;;;21.10;99.90;;;;;;5010619;28;20500;-77
2021/09/16 07:09:05;;;;;;;1.20;1.10;;;21.00;99.90;;;;;;5011769;28;20461;-78
2021/09/16 07:11:35;;;;;;;2.00;1.03;;;21.00;99.90;;;;;;5012959;28;20482;-78
2021/09/16 07:14:03;;;;;;;6.30;1.10;;;21.00;1.00;;;;;;5007603;28;20488;-79
2021/09/16 07:16:31;;;;;;;2.80;1.20;;;21.10;48.10;;;;;;5010545;28;20883;-77
2021/09/16 07:19:00;;;;;;;4.47;2.10;;;21.10;99.90;;;;;;5011306;28;20470;-77
2021/09/16 07:21:28;;;;;;;1.30;1.00;;;21.10;99.90;;;;;;5011822;28;20464;-78
2021/09/16 07:23:56;;;;;;;1.30;1.20;;;21.10;99.90;;;;;;5010469;28;20881;-76
2021/09/16 07:26:25;;;;;;;2.13;1.30;;;21.20;1.00;;;;;;5011454;28;20549;-77
2021/09/16 07:29:00;;;;;;;2.43;1.50;;;21.20;99.90;;;;;;5011278;28;20467;-78
2021/09/16 07:31:28;;;;;;;2.40;1.50;;;21.20;99.90;;;;;;5008811;28;20503;-77
2021/09/16 07:33:57;;;;;;;2.20;1.30;;;21.20;1.00;;;;;;5011244;28;20487;-77
2021/09/16 07:36:25;;;;;;;3.53;1.60;;;21.20;99.90;;;;;;5007314;28;20530;-77
2021/09/16 07:38:54;;;;;;;3.97;2.60;;;21.20;1.00;;;;;;5010662;28;20452;-77
2021/09/16 07:41:22;;;;;;;1.57;1.40;;;21.20;96.10;;;;;;5012701;28;20453;-78
2021/09/16 07:43:50;;;;;;;1.40;1.30;;;21.20;99.90;;;;;;5015079;28;21000;-77
2021/09/16 07:46:20;;;;;;;1.43;1.30;;;21.20;99.90;;;;;;5011710;28;20969;-78
2021/09/16 07:48:48;;;;;;;3.50;1.67;;;21.10;1.00;;;;;;5007295;28;20475;-78
2021/09/16 07:51:16;;;;;;;2.90;1.93;;;21.20;99.90;;;;;;5009529;28;20479;-78
2021/09/16 07:53:44;;;;;;;1.50;1.20;;;21.10;99.90;;;;;;5010341;28;20502;-78
2021/09/16 07:56:13;;;;;;;1.37;1.27;;;21.20;49.40;;;;;;5008191;28;20478;-78
2021/09/16 07:58:42;;;;;;;3.57;1.30;;;21.10;1.00;;;;;;5010027;28;20961;-77
2021/09/16 08:01:11;;;;;;;1.53;1.43;;;21.10;99.90;;;;;;5024229;28;20468;-78
2021/09/16 08:03:41;;;;;;;1.60;1.50;;;21.00;99.90;;;;;;5010287;28;20999;-78
2021/09/16 08:06:10;;;;;;;2.67;2.10;;;21.00;1.00;;;;;;5011687;28;20456;-77
2021/09/16 08:08:38;;;;;;;3.80;2.40;;;21.00;20.60;;;;;;5024229;28;20557;-79
2021/09/16 08:11:07;;;;;;;3.20;2.13;;;20.90;99.90;;;;;;5009329;28;20442;-77
2021/09/16 08:13:35;;;;;;;2.20;1.43;;;20.90;99.90;;;;;;5010699;28;20555;-77
2021/09/16 08:16:04;;;;;;;1.50;1.33;;;20.90;99.90;;;;;;5008159;28;20817;-78
2021/09/16 08:18:32;;;;;;;1.50;1.40;;;20.80;40.10;;;;;;5008434;28;21141;-73
2021/09/16 08:21:02;;;;;;;1.33;1.10;;;20.90;1.00;;;;;;5009041;28;20449;-78
2021/09/16 08:23:31;;;;;;;0.90;0.90;;;20.90;1.00;;;;;;5010258;28;21192;-77
2021/09/16 08:25:59;;;;;;;1.03;0.90;;;20.80;1.00;;;;;;5010721;28;20458;-78
2021/09/16 08:28:27;;;;;;;1.87;0.80;;;20.80;23.20;;;;;;5010814;28;20446;-77
2021/09/16 08:30:56;;;;;;;0.67;0.67;;;20.80;1.00;;;;;;5005633;28;20465;-77
2021/09/16 08:33:24;;;;;;;2.13;0.80;;;20.70;99.90;;;;;;5008824;28;20486;-78
2021/09/16 08:35:52;;;;;;;0.73;0.60;;;20.70;1.00;;;;;;5009075;28;20495;-78
2021/09/16 08:38:22;;;;;;;0.67;0.60;;;20.70;99.90;;;;;;5025268;28;20484;-77
2021/09/16 08:40:50;;;;;;;0.70;0.60;;;20.60;1.00;;;;;;5010708;28;20550;-78
2021/09/16 08:43:21;;;;;;;1.43;0.40;;;20.60;99.90;;;;;;5010157;28;20465;-77
2021/09/16 08:45:49;;;;;;;0.50;0.50;;;20.50;99.90;;;;;;5007181;28;20462;-77
2021/09/16 08:48:17;;;;;;;0.67;0.67;;;20.50;1.00;;;;;;5021274;28;20465;-78
2021/09/16 08:50:46;;;;;;;0.70;0.70;;;20.60;1.00;;;;;;5010235;28;20469;-79
2021/09/16 08:53:17;;;;;;;0.53;0.53;;;20.60;99.90;;;;;;5008175;28;21062;-77
2021/09/16 08:55:47;;;;;;;1.10;0.50;;;20.60;99.90;;;;;;5010989;28;20437;-77
2021/09/16 08:58:17;;;;;;;0.50;0.50;;;20.60;99.90;;;;;;5013447;28;20481;-77
2021/09/16 09:00:46;;;;;;;0.50;0.50;;;20.50;1.00;;;;;;5008964;28;21076;-77
2021/09/16 09:03:15;;;;;;;12.57;4.70;;;20.50;99.90;;;;;;5010743;28;20477;-78
2021/09/16 09:05:44;;;;;;;8.30;3.67;;;20.50;99.90;;;;;;5008009;28;20560;-77
2021/09/16 09:08:13;;;;;;;1.47;0.70;;;20.50;99.90;;;;;;5025149;28;20484;-77
2021/09/16 09:10:43;;;;;;;1.20;0.60;;;20.50;99.90;;;;;;5008702;28;20452;-78
2021/09/16 09:13:16;;;;;;;0.97;0.60;;;20.50;99.90;;;;;;5007447;28;21024;-78
2021/09/16 09:15:47;;;;;;;0.73;0.60;;;20.50;99.90;;;;;;5008510;28;20461;-77
2021/09/16 09:18:16;;;;;;;1.40;0.93;;;20.50;99.90;;;;;;5010443;28;20473;-77
2021/09/16 09:20:58;;;;;;;1.37;0.70;;;20.40;1.00;;;;;;5006093;28;20472;-80
2021/09/16 09:23:29;;;;;;;0.80;0.80;;;20.40;1.00;;;;;;5004765;28;21059;-77
2021/09/16 09:25:58;;;;;;;1.47;0.80;;;20.40;99.90;;;;;;5010121;28;20539;-76
2021/09/16 09:28:31;;;;;;;1.33;0.90;;;20.30;1.00;;;;;;5009185;28;20457;-78
2021/09/16 09:31:02;;;;;;;1.27;1.17;;;20.30;1.00;;;;;;5005795;28;20568;-78
2021/09/16 09:33:32;;;;;;;1.10;1.00;;;20.30;1.00;;;;;;5010517;28;20511;-77
2021/09/16 09:36:09;;;;;;;2.27;1.87;;;20.30;8.30;;;;;;5005073;28;20466;-77
2021/09/16 09:38:53;;;;;;;2.90;2.70;;;20.20;99.90;;;;;;4994321;28;20464;-77
2021/09/16 09:41:26;;;;;;;4.33;3.00;;;20.10;1.00;;;;;;5008387;28;20441;-77
2021/09/16 09:44:08;;;;;;;5.67;4.30;;;20.10;99.90;;;;;;5008102;28;20523;-77
2021/09/16 09:46:49;;;;;;;3.53;3.20;;;20.00;99.90;;;;;;5007795;28;20520;-76
2021/09/16 09:49:19;;;;;;;5.17;3.67;;;20.10;64.80;;;;;;5009659;28;20572;-78
2021/09/16 09:51:50;;;;;;;4.67;4.23;;;20.10;99.90;;;;;;5008836;28;20445;-77
2021/09/16 09:54:22;;;;;;;4.60;4.20;;;20.10;99.90;;;;;;5012333;28;20563;-77
2021/09/16 09:57:03;;;;;;;9.20;5.17;;;20.10;99.90;;;;;;5014897;28;20471;-77
2021/09/16 09:59:59;;;;;;;5.67;4.87;;;20.00;1.00;;;;;;5006411;28;20450;-78
2021/09/16 10:02:30;;;;;;;5.67;4.67;;;20.10;18.90;;;;;;5007089;28;20461;-77
2021/09/16 10:04:59;;;;;;;3.97;3.57;;;20.00;1.00;;;;;;5017573;28;20494;-78
2021/09/16 10:07:34;;;;;;;4.77;4.27;;;20.10;1.00;;;;;;5009484;28;20937;-77
2021/09/16 10:10:06;;;;;;;7.20;4.77;;;19.90;99.90;;;;;;5007410;28;20738;-78
2021/09/16 10:12:35;;;;;;;6.90;4.90;;;19.90;1.00;;;;;;5006141;28;20468;-79
2021/09/16 10:15:09;;;;;;;6.53;5.87;;;19.90;99.90;;;;;;5009150;28;20465;-78
2021/09/16 10:17:37;;;;;;;5.13;4.60;;;20.00;99.90;;;;;;5021874;28;20472;-78
2021/09/16 10:20:08;;;;;;;6.20;5.60;;;20.10;99.90;;;;;;5008521;28;20449;-78
2021/09/16 10:22:38;;;;;;;8.40;6.07;;;20.10;1.00;;;;;;5007546;28;21021;-78
2021/09/16 10:25:08;;;;;;;8.47;6.87;;;20.10;99.90;;;;;;5008890;28;20468;-80
2021/09/16 10:27:40;;;;;;;7.63;5.50;;;20.10;1.00;;;;;;5008615;28;20459;-77
2021/09/16 10:30:44;;;;;;;8.07;6.70;;;20.20;99.90;;;;;;5003013;28;20462;-77
2021/09/16 10:33:28;;;;;;;6.10;5.33;;;20.10;1.00;;;;;;4997276;28;20476;-77
2021/09/16 10:36:08;;;;;;;6.10;5.50;;;20.10;99.90;;;;;;5007759;28;20460;-75
2021/09/16 10:38:39;;;;;;;7.53;5.73;;;20.10;99.90;;;;;;4996048;28;20513;-79
2021/09/16 10:41:29;;;;;;;8.70;6.20;;;20.10;99.90;;;;;;5000294;28;20454;-78
2021/09/16 10:44:22;;;;;;;8.70;5.50;;;20.10;99.90;;;;;;5008821;28;20481;-79
2021/09/16 10:46:52;;;;;;;7.73;6.07;;;20.10;1.00;;;;;;5008425;28;20945;-77
2021/09/16 10:49:35;;;;;;;6.53;5.73;;;20.00;99.90;;;;;;5007917;28;20473;-77
2021/09/16 10:52:19;;;;;;;11.20;6.87;;;20.00;99.90;;;;;;5007415;28;20465;-78
2021/09/16 10:54:49;;;;;;;8.70;7.40;;;20.00;99.90;;;;;;5006647;28;20487;-77
2021/09/16 10:57:19;;;;;;;9.47;7.87;;;20.10;98.70;;;;;;5008096;28;20433;-78
2021/09/16 11:00:16;;;;;;;8.40;7.10;;;20.00;1.00;;;;;;4997325;28;20450;-77
2021/09/16 11:03:12;;;;;;;8.53;7.30;;;20.00;99.90;;;;;;5003823;28;20445;-78
2021/09/16 11:05:51;;;;;;;10.17;7.90;;;20.10;1.00;;;;;;5003339;28;20452;-78
2021/09/16 11:08:22;;;;;;;10.60;7.60;;;20.10;99.90;;;;;;5003752;28;21010;-78
2021/09/16 11:10:57;;;;;;;8.80;7.80;;;20.10;99.90;;;;;;5005084;28;20549;-79
2021/09/16 11:13:50;;;;;;;11.47;9.70;;;20.10;54.50;;;;;;5008685;28;20476;-78
2021/09/16 11:16:26;;;;;;;13.33;9.07;;;20.20;1.00;;;;;;4997524;28;20965;-78
2021/09/16 11:19:06;;;;;;;9.53;7.80;;;20.00;99.90;;;;;;5007806;28;20611;-78
2021/09/16 11:21:36;;;;;;;11.90;8.77;;;20.00;99.90;;;;;;5006185;28;20453;-79
2021/09/16 11:24:08;;;;;;;13.00;10.83;;;20.00;99.90;;;;;;5010279;28;20474;-78
2021/09/16 11:26:37;;;;;;;11.23;9.40;;;20.00;99.90;;;;;;5011044;28;20953;-79
2021/09/16 11:29:09;;;;;;;14.80;9.60;;;20.20;99.90;;;;;;5008207;28;20511;-79
2021/09/16 11:31:37;;;;;;;11.83;9.53;;;20.20;99.90;;;;;;5009097;28;20441;-78
2021/09/16 11:34:17;;;;;;;11.43;9.60;;;20.30;95.60;;;;;;5010487;28;20969;-79
2021/09/16 11:37:09;;;;;;;15.17;11.80;;;20.30;1.00;;;;;;5005955;28;20453;-78
2021/09/16 11:39:38;;;;;;;14.20;10.97;;;20.30;1.00;;;;;;5009678;28;20475;-76
2021/09/16 11:42:15;;;;;;;15.37;11.20;;;20.30;1.00;;;;;;5010581;28;20454;-78
2021/09/16 11:45:02;;;;;;;15.33;12.43;;;20.40;1.00;;;;;;4999413;28;20472;-78
2021/09/16 11:47:35;;;;;;;14.83;10.70;;;20.30;1.00;;;;;;5045224;28;20457;-78
2021/09/16 11:50:06;;;;;;;15.07;12.87;;;20.30;99.90;;;;;;5017457;28;21047;-78
2021/09/16 11:52:38;;;;;;;19.00;13.30;;;20.30;1.00;;;;;;5012187;28;20441;-76
2021/09/16 11:55:10;;;;;;;20.33;13.67;;;20.30;99.90;;;;;;5010354;28;20469;-79
2021/09/16 11:58:10;;;;;;;16.37;11.77;;;20.30;1.00;;;;;;5005828;28;20449;-78
2021/09/16 12:00:43;;;;;;;15.43;11.90;;;20.50;99.90;;;;;;4966706;28;21124;-78
2021/09/16 12:03:13;;;;;;;12.33;10.97;;;20.40;99.90;;;;;;5003839;28;20477;-78
2021/09/16 12:05:45;;;;;;;15.00;10.87;;;20.40;90.00;;;;;;5011136;28;20446;-78
2021/09/16 12:08:28;;;;;;;15.03;9.70;;;20.40;49.90;;;;;;5011263;28;20452;-78
2021/09/16 12:11:02;;;;;;;13.83;9.87;;;20.40;99.90;;;;;;5009368;28;20510;-78
2021/09/16 12:13:32;;;;;;;12.50;9.50;;;20.40;99.90;;;;;;5007467;28;20492;-79
2021/09/16 12:16:09;;;;;;;12.73;8.60;;;20.40;99.90;;;;;;5008308;28;20540;-79
2021/09/16 12:18:39;;;;;;;10.87;8.60;;;20.40;99.90;;;;;;5023316;28;20592;-78
2021/09/16 12:21:11;;;;;;;8.80;7.23;;;20.30;95.50;;;;;;5011504;28;20441;-77
2021/09/16 12:23:42;;;;;;;7.73;6.93;;;20.30;1.00;;;;;;5011946;28;20480;-78
2021/09/16 12:26:20;;;;;;;8.90;7.80;;;20.30;1.00;;;;;;5008961;28;20515;-77
2021/09/16 12:28:54;;;;;;;7.63;6.80;;;20.30;99.90;;;;;;5010272;28;20453;-77
2021/09/16 12:31:24;;;;;;;9.97;7.07;;;20.20;99.90;;;;;;5008295;28;20459;-78
2021/09/16 12:34:02;;;;;;;11.20;7.50;;;20.30;99.90;;;;;;5011594;28;20445;-78
2021/09/16 12:36:30;;;;;;;5.93;5.30;;;20.30;99.90;;;;;;5000055;28;20441;-76
2021/09/16 12:39:06;;;;;;;7.20;6.33;;;20.30;99.90;;;;;;5010879;28;20473;-77
2021/09/16 12:41:43;;;;;;;8.07;5.87;;;20.30;99.90;;;;;;5010203;28;20453;-77
2021/09/16 12:44:14;;;;;;;8.20;5.67;;;20.30;99.90;;;;;;5013151;28;20476;-78
2021/09/16 12:46:51;;;;;;;8.93;7.80;;;20.40;99.90;;;;;;5008450;28;20447;-78
2021/09/16 12:49:35;;;;;;;8.10;6.80;;;20.40;99.90;;;;;;5009123;28;20463;-78
2021/09/16 12:52:10;;;;;;;6.50;5.83;;;20.60;99.90;;;;;;5007118;28;20473;-77
2021/09/16 12:54:46;;;;;;;6.77;6.17;;;20.50;1.00;;;;;;5007097;28;20505;-78
2021/09/16 12:57:16;;;;;;;5.40;4.90;;;20.50;99.90;;;;;;5009489;28;20523;-78
2021/09/16 12:59:49;;;;;;;6.60;6.00;;;20.50;99.90;;;;;;5008868;28;20470;-78
2021/09/16 13:02:19;;;;;;;8.17;6.10;;;20.60;1.00;;;;;;5007158;28;20817;-78
2021/09/16 13:04:50;;;;;;;6.63;5.67;;;20.60;1.00;;;;;;5009537;28;20524;-78